createdAt,value
2022-10-02T00:02:17.645Z,77.53
2022-10-02T00:04:53.041Z,77.10
2022-10-02T00:07:28.712Z,76.30
2022-10-02T00:10:00.954Z,76.40
2022-10-02T00:12:30.278Z,77.35
2022-10-02T00:15:07.278Z,76.60
2022-10-02T00:17:38.403Z,77.38
2022-10-02T00:20:11.824Z,76.78
2022-10-02T00:22:48.265Z,76.70
2022-10-02T00:25:23.043Z,76.78
2022-10-02T00:28:07.193Z,77.10
2022-10-02T00:30:45.407Z,76.93
2022-10-02T00:33:22.936Z,77.85
2022-10-02T00:36:17.744Z,77.30
2022-10-02T00:38:52.344Z,77.25
2022-10-02T00:41:57.502Z,77.65
2022-10-02T00:44:41.764Z,77.00
2022-10-02T00:47:18.247Z,76.93
2022-10-02T00:50:01.886Z,77.18
2022-10-02T00:52:46.492Z,77.80
2022-10-02T00:55:38.005Z,77.25
2022-10-02T00:58:39.647Z,76.68
2022-10-02T01:01:12.060Z,76.90
2022-10-02T01:03:40.240Z,77.80
2022-10-02T01:06:08.504Z,77.10
2022-10-02T01:08:35.911Z,77.97
2022-10-02T01:11:05.440Z,77.68
2022-10-02T01:13:34.146Z,77.20
2022-10-02T01:16:01.711Z,77.32
2022-10-02T01:18:30.265Z,77.43
2022-10-02T01:21:02.061Z,77.57
2022-10-02T01:23:34.618Z,77.18
2022-10-02T01:26:03.017Z,77.43
2022-10-02T01:28:30.442Z,77.15
2022-10-02T01:31:07.708Z,76.80
2022-10-02T01:33:35.638Z,77.15
2022-10-02T01:36:02.734Z,77.57
2022-10-02T01:38:31.344Z,77.28
2022-10-02T01:40:58.284Z,77.22
2022-10-02T01:43:31.416Z,77.28
2022-10-02T01:46:07.603Z,77.18
2022-10-02T01:48:45.908Z,76.93
2022-10-02T01:51:52.749Z,76.93
2022-10-02T01:54:30.520Z,77.00
2022-10-02T01:57:09.219Z,76.93
2022-10-02T01:59:52.901Z,77.03
2022-10-02T02:02:26.212Z,77.15
2022-10-02T02:04:58.874Z,77.70
2022-10-02T02:07:35.517Z,77.47
2022-10-02T02:10:12.844Z,77.20
2022-10-02T02:12:43.653Z,77.30
2022-10-02T02:15:20.235Z,78.45
2022-10-02T02:17:52.369Z,77.95
2022-10-02T02:20:22.919Z,77.35
2022-10-02T02:22:52.649Z,77.25
2022-10-02T02:25:22.776Z,77.28
2022-10-02T02:27:53.940Z,77.53
2022-10-02T02:30:23.109Z,77.63
2022-10-02T02:32:53.364Z,78.10
2022-10-02T02:35:25.359Z,77.95
2022-10-02T02:37:55.264Z,78.03
2022-10-02T02:40:25.749Z,77.55
2022-10-02T02:42:59.752Z,78.57
2022-10-02T02:45:33.116Z,79.63
2022-10-02T02:48:06.414Z,77.97
2022-10-02T02:50:39.140Z,78.28
2022-10-02T02:53:11.445Z,77.55
2022-10-02T02:55:45.138Z,78.28
2022-10-02T02:58:16.582Z,78.05
2022-10-02T03:00:46.005Z,78.38
2022-10-02T03:03:12.980Z,78.57
2022-10-02T03:05:45.986Z,78.15
2022-10-02T03:08:21.746Z,79.60
2022-10-02T03:11:03.517Z,78.45
2022-10-02T03:13:41.817Z,78.13
2022-10-02T03:16:25.854Z,78.22
2022-10-02T03:19:08.464Z,78.22
2022-10-02T03:21:41.347Z,78.78
2022-10-02T03:24:16.730Z,79.00
2022-10-02T03:26:50.292Z,78.35
2022-10-02T03:29:22.089Z,78.85
2022-10-02T03:31:50.968Z,78.82
2022-10-02T03:34:18.968Z,78.80
2022-10-02T03:36:47.647Z,78.50
2022-10-02T03:39:30.202Z,78.82
2022-10-02T03:41:57.121Z,78.88
2022-10-02T03:44:24.072Z,80.25
2022-10-02T03:46:52.460Z,79.00
2022-10-02T03:49:19.309Z,79.28
2022-10-02T03:51:46.265Z,84.13
2022-10-02T03:54:17.025Z,79.05
2022-10-02T03:56:52.691Z,78.82
2022-10-02T03:59:33.883Z,78.45
2022-10-02T04:02:06.306Z,77.85
2022-10-02T04:04:43.660Z,78.38
2022-10-02T04:07:17.824Z,78.30
2022-10-02T04:09:50.059Z,78.50
2022-10-02T04:12:21.215Z,78.40
2022-10-02T04:14:53.977Z,78.38
2022-10-02T04:17:27.730Z,78.13
2022-10-02T04:19:59.350Z,78.60
2022-10-02T04:27:35.082Z,77.88
2022-10-02T04:30:06.865Z,77.97
2022-10-02T04:32:36.916Z,79.22
2022-10-02T04:35:12.460Z,80.07
2022-10-02T04:37:50.643Z,79.18
2022-10-02T04:40:38.930Z,79.18
2022-10-02T04:43:20.962Z,79.65
2022-10-02T04:45:59.659Z,78.93
2022-10-02T04:48:47.747Z,79.28
2022-10-02T04:51:26.592Z,79.25
2022-10-02T04:54:22.891Z,85.50
2022-10-02T04:57:09.899Z,79.03
2022-10-02T04:59:51.748Z,80.18
2022-10-02T05:02:31.870Z,79.35
2022-10-02T05:05:14.717Z,79.10
2022-10-02T05:07:56.922Z,79.55
2022-10-02T05:10:38.186Z,79.22
2022-10-02T05:13:17.984Z,79.20
2022-10-02T05:16:08.237Z,78.95
2022-10-02T05:18:56.984Z,78.70
2022-10-02T05:21:39.149Z,79.00
2022-10-02T05:24:22.940Z,78.70
2022-10-02T05:27:06.920Z,78.97
2022-10-02T05:29:51.626Z,78.75
2022-10-02T05:32:36.243Z,78.82
2022-10-02T05:35:20.810Z,78.72
2022-10-02T05:38:05.384Z,78.85
2022-10-02T05:40:37.856Z,79.07
2022-10-02T05:43:10.467Z,79.50
2022-10-02T05:45:40.380Z,79.50
2022-10-02T05:48:15.780Z,79.93
2022-10-02T05:50:46.364Z,79.28
2022-10-02T05:53:28.824Z,86.93
2022-10-02T05:56:00.424Z,79.07
2022-10-02T06:01:06.298Z,79.30
2022-10-02T06:03:39.429Z,79.57
2022-10-02T06:06:13.275Z,79.70
2022-10-02T06:08:47.615Z,79.93
2022-10-02T06:11:19.157Z,80.25
2022-10-02T06:16:22.798Z,80.53
2022-10-02T06:18:53.075Z,80.70
2022-10-02T06:21:28.195Z,80.78
2022-10-02T06:24:02.362Z,81.43
2022-10-02T06:26:40.656Z,81.57
2022-10-02T06:29:18.108Z,82.70
2022-10-02T06:31:52.839Z,81.65
2022-10-02T06:34:19.928Z,81.38
2022-10-02T06:37:13.894Z,83.22
2022-10-02T06:39:58.341Z,82.63
2022-10-02T06:42:37.184Z,82.43
2022-10-02T06:45:10.673Z,82.32
2022-10-02T06:47:54.196Z,82.82
2022-10-02T06:50:31.282Z,82.85
2022-10-02T06:53:06.515Z,82.25
2022-10-02T06:55:48.902Z,83.05
2022-10-02T06:58:39.036Z,82.55
2022-10-02T07:01:15.621Z,83.57
2022-10-02T07:03:55.205Z,86.53
2022-10-02T07:06:53.813Z,87.90
2022-10-02T07:09:38.265Z,88.97
2022-10-02T07:12:20.331Z,88.80
2022-10-02T07:15:02.929Z,90.65
2022-10-02T07:17:42.419Z,96.80
2022-10-02T07:20:26.092Z,102.05
2022-10-02T07:23:13.547Z,109.75
2022-10-02T07:25:54.329Z,114.88
2022-10-02T07:28:33.061Z,116.90
2022-10-02T07:31:08.064Z,118.03
2022-10-02T07:33:52.179Z,121.25
2022-10-02T07:36:32.335Z,122.22
2022-10-02T07:39:11.501Z,119.88
2022-10-02T07:42:08.566Z,119.95
2022-10-02T07:44:59.712Z,118.05
2022-10-02T07:47:42.714Z,119.68
2022-10-02T07:50:12.900Z,118.75
2022-10-02T07:52:49.070Z,116.22
2022-10-02T07:55:19.130Z,115.30
2022-10-02T07:58:00.482Z,113.90
2022-10-02T08:00:33.029Z,115.50
2022-10-02T08:03:02.772Z,115.18
2022-10-02T08:05:32.729Z,115.93
2022-10-02T08:08:03.546Z,115.93
2022-10-02T08:10:35.981Z,115.90
2022-10-02T08:13:11.685Z,114.72
2022-10-02T08:15:44.307Z,115.88
2022-10-02T08:18:33.501Z,115.22
2022-10-02T08:21:02.263Z,112.88
2022-10-02T08:23:33.944Z,115.60
2022-10-02T08:26:06.959Z,110.45
2022-10-02T08:28:40.045Z,109.10
2022-10-02T08:31:12.822Z,110.13
2022-10-02T08:33:40.246Z,111.75
2022-10-02T08:36:40.600Z,112.47
2022-10-02T08:39:24.472Z,111.13
2022-10-02T08:42:20.157Z,112.75
2022-10-02T08:45:19.491Z,113.22
2022-10-02T08:48:26.697Z,114.22
2022-10-02T08:51:33.179Z,113.63
2022-10-02T08:54:50.535Z,113.30
2022-10-02T08:58:04.855Z,116.55
2022-10-02T09:00:45.893Z,116.55
2022-10-02T09:04:01.029Z,118.70
2022-10-02T09:07:13.514Z,119.40
2022-10-02T09:10:13.215Z,118.95
2022-10-02T09:13:24.693Z,118.15
2022-10-02T09:16:03.831Z,117.10
2022-10-02T09:18:49.374Z,115.32
2022-10-02T09:21:20.012Z,115.38
2022-10-02T09:24:32.525Z,112.68
2022-10-02T09:27:59.284Z,111.75
2022-10-02T09:30:43.334Z,113.65
